createdAt,value
2023-09-18T00:00:17.497Z,100730.56
2023-09-18T00:02:44.367Z,100722.31
2023-09-18T00:05:11.030Z,100718.50
2023-09-18T00:07:37.929Z,100713.94
2023-09-18T00:10:04.640Z,100702.56
2023-09-18T00:12:31.079Z,100685.91
2023-09-18T00:14:57.521Z,100670.41
2023-09-18T00:17:25.147Z,100671.91
2023-09-18T00:19:52.883Z,100670.75
2023-09-18T00:22:19.499Z,100658.66
2023-09-18T00:24:46.041Z,100652.59
2023-09-18T00:27:12.486Z,100657.16
2023-09-18T00:29:38.934Z,100646.53
2023-09-18T00:32:05.939Z,100634.03
2023-09-18T00:34:33.166Z,100642.72
2023-09-18T00:37:00.347Z,100637.44
2023-09-18T00:39:28.008Z,100637.44
2023-09-18T00:41:55.302Z,100634.03
2023-09-18T00:44:23.150Z,100638.91
2023-09-18T00:46:50.816Z,100634.78
2023-09-18T00:49:19.037Z,100614.72
2023-09-18T00:51:45.873Z,100606.75
2023-09-18T00:54:12.894Z,100604.09
2023-09-18T00:56:39.654Z,100594.97
2023-09-18T00:59:06.140Z,100588.19
2023-09-18T01:01:33.094Z,100576.84
2023-09-18T01:04:00.703Z,100580.22
2023-09-18T01:06:31.572Z,100568.47
2023-09-18T01:08:58.105Z,100558.59
2023-09-18T01:11:37.369Z,100553.72
2023-09-18T01:14:14.616Z,100549.16
2023-09-18T01:16:47.732Z,100551.81
2023-09-18T01:19:14.208Z,100543.09
2023-09-18T01:21:40.700Z,100541.94
2023-09-18T01:24:07.303Z,100526.75
2023-09-18T01:26:33.779Z,100529.41
2023-09-18T01:29:00.258Z,100520.72
2023-09-18T01:31:27.569Z,100516.91
2023-09-18T01:33:55.145Z,100503.19
2023-09-18T01:36:22.061Z,100494.47
2023-09-18T01:38:51.270Z,100502.44
2023-09-18T01:41:18.157Z,100495.22
2023-09-18T01:43:44.787Z,100498.66
2023-09-18T01:46:11.570Z,100500.44
2023-09-18T01:48:39.067Z,100501.63
2023-09-18T01:51:05.520Z,100503.84
2023-09-18T01:53:32.347Z,100515.19
2023-09-18T01:55:58.953Z,100514.88
2023-09-18T01:58:25.410Z,100507.69
2023-09-18T02:00:52.434Z,100515.31
2023-09-18T02:03:30.923Z,100519.75
2023-09-18T02:06:11.394Z,100531.22
2023-09-18T02:08:38.156Z,100528.44
2023-09-18T02:11:05.754Z,100524.31
2023-09-18T02:13:32.238Z,100522.84
2023-09-18T02:15:58.812Z,100524.31
2023-09-18T02:18:25.261Z,100525.19
2023-09-18T02:20:51.720Z,100516.06
2023-09-18T02:23:19.662Z,100515.63
2023-09-18T02:25:46.216Z,100512.09
2023-09-18T02:28:12.766Z,100511.38
2023-09-18T02:30:39.736Z,100497.34
2023-09-18T02:33:06.281Z,100491.63
2023-09-18T02:35:32.839Z,100487.50
2023-09-18T02:38:00.976Z,100488.97
2023-09-18T02:40:27.476Z,100470.41
2023-09-18T02:42:53.940Z,100471.56
2023-09-18T02:45:20.406Z,100468.19
2023-09-18T02:47:46.907Z,100453.75
2023-09-18T02:50:13.531Z,100448.13
2023-09-18T02:52:40.048Z,100446.22
2023-09-18T02:55:06.746Z,100432.94
2023-09-18T02:57:33.219Z,100427.34
2023-09-18T02:59:59.828Z,100413.63
2023-09-18T03:02:26.403Z,100412.91
2023-09-18T03:04:53.073Z,100395.53
2023-09-18T03:07:19.518Z,100396.25
2023-09-18T03:09:45.975Z,100390.97
2023-09-18T03:12:12.424Z,100387.84
2023-09-18T03:14:39.096Z,100398.19
2023-09-18T03:17:05.869Z,100391.69
2023-09-18T03:19:32.451Z,100384.47
2023-09-18T03:21:58.936Z,100391.69
2023-09-18T03:24:25.485Z,100386.38
2023-09-18T03:26:51.927Z,100384.47
2023-09-18T03:29:18.440Z,100386.06
2023-09-18T03:31:45.024Z,100382.25
2023-09-18T03:34:11.578Z,100383.00
2023-09-18T03:36:38.501Z,100382.25
2023-09-18T03:39:06.162Z,100394.03
2023-09-18T03:41:35.465Z,100398.59
2023-09-18T03:44:02.266Z,100409.22
2023-09-18T03:46:28.757Z,100414.50
2023-09-18T03:48:56.375Z,100411.88
2023-09-18T03:51:22.959Z,100422.06
2023-09-18T03:53:49.460Z,100400.81
2023-09-18T03:56:16.635Z,100392.56
2023-09-18T03:58:43.239Z,100385.34
2023-09-18T04:01:09.723Z,100375.47
2023-09-18T04:03:36.472Z,100371.34
2023-09-18T04:06:04.349Z,100377.38
2023-09-18T04:08:30.891Z,100372.06
2023-09-18T04:10:59.045Z,100354.66
2023-09-18T04:13:25.960Z,100361.47
2023-09-18T04:15:55.539Z,100344.81
2023-09-18T04:18:22.024Z,100347.47
2023-09-18T04:20:48.520Z,100346.28
2023-09-18T04:23:27.260Z,100327.31
2023-09-18T04:25:55.272Z,100318.28
2023-09-18T04:28:23.509Z,100323.59
2023-09-18T04:30:50.316Z,100312.97
2023-09-18T04:33:17.767Z,100303.50
2023-09-18T04:35:45.376Z,100294.84
2023-09-18T04:38:12.203Z,100290.25
2023-09-18T04:40:41.778Z,100297.50
2023-09-18T04:43:08.742Z,100322.06
2023-09-18T04:45:35.303Z,100359.94
2023-09-18T04:48:01.857Z,100369.81
2023-09-18T04:50:28.326Z,100355.84
2023-09-18T04:52:57.073Z,100393.16
2023-09-18T04:55:23.544Z,100393.63
2023-09-18T04:57:50.248Z,100372.81
2023-09-18T05:00:18.339Z,100368.69
2023-09-18T05:02:45.621Z,100343.28
2023-09-18T05:05:12.830Z,100332.69
2023-09-18T05:07:39.445Z,100333.44
2023-09-18T05:10:06.201Z,100315.31
2023-09-18T05:12:33.159Z,100335.03
2023-09-18T05:14:59.889Z,100322.81
2023-09-18T05:17:44.819Z,100326.66
2023-09-18T05:20:17.297Z,100315.31
2023-09-18T05:22:44.546Z,100302.06
2023-09-18T05:25:11.468Z,100300.56
2023-09-18T05:27:45.407Z,100310.75
2023-09-18T05:30:26.257Z,100312.66
2023-09-18T05:32:52.779Z,100310.00
2023-09-18T05:35:19.273Z,100331.97
2023-09-18T05:37:45.798Z,100328.56
2023-09-18T05:40:14.047Z,100315.63
2023-09-18T05:42:46.738Z,100334.06
2023-09-18T05:45:14.418Z,100337.47
2023-09-18T05:47:41.089Z,100344.53
2023-09-18T05:50:09.106Z,100342.63
2023-09-18T05:52:36.166Z,100326.84
2023-09-18T05:55:06.276Z,100326.09
2023-09-18T05:57:32.965Z,100330.53
2023-09-18T05:59:59.648Z,100333.94
2023-09-18T06:02:26.387Z,100351.22
2023-09-18T06:05:01.255Z,100344.41
2023-09-18T06:07:28.824Z,100332.34
2023-09-18T06:09:55.621Z,100334.66
2023-09-18T06:12:25.874Z,100352.06
2023-09-18T06:14:52.394Z,100355.00
2023-09-18T06:17:19.268Z,100355.66
2023-09-18T06:19:46.692Z,100344.41
2023-09-18T06:22:14.134Z,100339.44
2023-09-18T06:24:41.016Z,100351.81
2023-09-18T06:27:07.515Z,100340.19
2023-09-18T06:29:35.475Z,100344.84
2023-09-18T06:32:02.244Z,100343.78
2023-09-18T06:34:31.431Z,100349.09
2023-09-18T06:36:58.078Z,100359.00
2023-09-18T06:39:25.619Z,100362.81
2023-09-18T06:41:52.121Z,100358.25
2023-09-18T06:44:18.706Z,100352.19
2023-09-18T06:46:45.220Z,100363.97
2023-09-18T06:49:11.819Z,100360.16
2023-09-18T06:51:43.381Z,100350.72
2023-09-18T06:54:10.581Z,100351.47
2023-09-18T06:56:37.101Z,100358.69
2023-09-18T06:59:03.685Z,100365.16
2023-09-18T07:01:31.377Z,100356.78
2023-09-18T07:03:58.194Z,100368.53
2023-09-18T07:06:24.834Z,100373.09
2023-09-18T07:08:51.613Z,100367.38
2023-09-18T07:11:18.989Z,100363.97
2023-09-18T07:13:45.688Z,100371.66
2023-09-18T07:16:12.581Z,100369.75
2023-09-18T07:18:39.189Z,100370.44
2023-09-18T07:21:05.882Z,100369.00
2023-09-18T07:23:32.596Z,100358.38
2023-09-18T07:25:59.186Z,100358.81
2023-09-18T07:28:26.386Z,100366.03
2023-09-18T07:30:52.943Z,100367.81
2023-09-18T07:33:21.386Z,100354.66
2023-09-18T07:35:54.966Z,100351.59
2023-09-18T07:38:21.508Z,100358.38
2023-09-18T07:40:48.356Z,100366.03
2023-09-18T07:43:15.240Z,100374.72
2023-09-18T07:45:42.055Z,100364.13
2023-09-18T07:48:09.343Z,100366.78
2023-09-18T07:50:36.484Z,100379.28
2023-09-18T07:53:03.773Z,100360.72
2023-09-18T07:55:31.059Z,100369.75
2023-09-18T07:57:59.300Z,100371.66
2023-09-18T08:00:27.353Z,100380.03
2023-09-18T08:02:59.813Z,100382.25
2023-09-18T08:05:29.060Z,100379.59
2023-09-18T08:08:00.333Z,100381.06
2023-09-18T08:10:27.383Z,100382.69
2023-09-18T08:12:54.343Z,100383.81
2023-09-18T08:15:21.558Z,100390.66
2023-09-18T08:17:49.633Z,100385.34
2023-09-18T08:20:17.348Z,100383.72
2023-09-18T08:22:45.264Z,100388.00
2023-09-18T08:25:12.634Z,100399.34
2023-09-18T08:27:45.051Z,100403.16
2023-09-18T08:30:13.712Z,100398.59
2023-09-18T08:32:41.805Z,100389.91
2023-09-18T08:35:09.510Z,100397.84
2023-09-18T08:37:36.342Z,100393.03
2023-09-18T08:40:11.110Z,100394.09
2023-09-18T08:42:45.683Z,100393.91
2023-09-18T08:45:19.017Z,100402.28
2023-09-18T08:47:46.649Z,100406.44
2023-09-18T08:50:13.583Z,100410.56
2023-09-18T08:52:41.061Z,100411.72
2023-09-18T08:55:10.249Z,100414.38
2023-09-18T08:57:38.743Z,100411.72
2023-09-18T09:00:08.707Z,100414.38
2023-09-18T09:02:35.872Z,100426.47
2023-09-18T09:05:02.947Z,100431.78
2023-09-18T09:07:32.209Z,100435.47
2023-09-18T09:09:58.828Z,100433.56
2023-09-18T09:12:54.636Z,100434.31
2023-09-18T09:15:24.546Z,100424.84
2023-09-18T09:17:53.479Z,100440.03
2023-09-18T09:20:20.219Z,100438.88
2023-09-18T09:22:47.160Z,100431.66
2023-09-18T09:25:32.471Z,100439.19
2023-09-18T09:28:00.846Z,100443.00
2023-09-18T09:30:29.634Z,100443.00
2023-09-18T09:32:58.080Z,100439.63
2023-09-18T09:35:30.151Z,100438.44
2023-09-18T09:38:12.335Z,100448.22
2023-09-18T09:40:44.245Z,100452.47
2023-09-18T09:43:14.441Z,100452.78
2023-09-18T09:45:41.282Z,100452.78
2023-09-18T09:48:09.236Z,100456.91
2023-09-18T09:50:48.128Z,100454.13
2023-09-18T09:53:15.718Z,100459.56
2023-09-18T09:55:42.759Z,100459.56
2023-09-18T09:58:12.185Z,100455.09
2023-09-18T10:00:53.051Z,100464.56
2023-09-18T10:03:21.907Z,100474.41
2023-09-18T10:05:55.223Z,100466.78
2023-09-18T10:08:27.644Z,100481.53
2023-09-18T10:10:57.451Z,100478.13
2023-09-18T10:13:32.945Z,100478.88
2023-09-18T10:16:03.860Z,100483.00
2023-09-18T10:19:12.735Z,100478.44
2023-09-18T10:21:39.508Z,100490.22
2023-09-18T10:24:24.733Z,100488.75
2023-09-18T10:27:03.700Z,100495.63
2023-09-18T10:29:32.263Z,100497.56
2023-09-18T10:31:59.602Z,100502.00
2023-09-18T10:34:26.548Z,100510.72
2023-09-18T10:36:54.937Z,100498.16
2023-09-18T10:39:24.904Z,100500.81
2023-09-18T10:41:56.871Z,100512.19
2023-09-18T10:44:24.212Z,100512.19
2023-09-18T10:46:55.427Z,100504.66
2023-09-18T10:49:22.983Z,100497.47
2023-09-18T10:51:49.962Z,100506.13
2023-09-18T10:54:20.984Z,100502.31
2023-09-18T10:56:48.201Z,100489.03
2023-09-18T10:59:16.370Z,100485.66
2023-09-18T11:01:43.607Z,100484.91
2023-09-18T11:04:11.607Z,100486.09
2023-09-18T11:06:56.936Z,100490.22
2023-09-18T11:09:27.632Z,100485.97
2023-09-18T11:11:58.982Z,100479.59
2023-09-18T11:14:57.383Z,100487.66
2023-09-18T11:17:40.962Z,100493.72
2023-09-18T11:20:10.921Z,100486.84
2023-09-18T11:22:38.580Z,100475.03
2023-09-18T11:25:38.563Z,100480.78
2023-09-18T11:28:09.511Z,100477.69
2023-09-18T11:30:37.543Z,100483.00
2023-09-18T11:33:10.396Z,100473.13
2023-09-18T11:35:38.689Z,100476.94
2023-09-18T11:38:12.098Z,100469.72
2023-09-18T11:40:40.455Z,100478.44
2023-09-18T11:43:27.327Z,100469.72
2023-09-18T11:45:56.709Z,100479.59
2023-09-18T11:48:25.786Z,100477.69
2023-09-18T11:50:53.822Z,100484.91
2023-09-18T11:53:20.604Z,100482.25
2023-09-18T11:55:47.872Z,100475.78
2023-09-18T11:58:15.317Z,100474.63
2023-09-18T12:00:48.368Z,100473.13
2023-09-18T12:03:28.219Z,100470.03
2023-09-18T12:05:58.100Z,100478.31
2023-09-18T12:08:28.690Z,100478.31
2023-09-18T12:10:55.859Z,100487.88
2023-09-18T12:13:23.297Z,100484.06
2023-09-18T12:15:50.589Z,100471.97
2023-09-18T12:18:18.207Z,100470.78
2023-09-18T12:20:49.061Z,100472.25
2023-09-18T12:23:16.733Z,100478.75
2023-09-18T12:25:46.736Z,100465.50
2023-09-18T12:28:15.679Z,100472.25
2023-09-18T12:30:42.490Z,100482.88
2023-09-18T12:33:09.256Z,100480.97
2023-09-18T12:35:35.875Z,100474.91
2023-09-18T12:38:05.587Z,100473.44
2023-09-18T12:40:35.322Z,100476.81
2023-09-18T12:43:02.390Z,100474.47
2023-09-18T12:45:30.985Z,100469.91
2023-09-18T12:47:59.069Z,100462.38
2023-09-18T12:50:26.857Z,100465.78
2023-09-18T12:52:53.585Z,100454.41
2023-09-18T12:55:25.303Z,100447.94
2023-09-18T12:57:53.046Z,100445.28
2023-09-18T13:00:24.266Z,100441.47
2023-09-18T13:02:56.169Z,100436.50
2023-09-18T13:05:27.549Z,100429.69
2023-09-18T13:07:55.380Z,100419.06
2023-09-18T13:10:24.856Z,100428.53
2023-09-18T13:12:56.467Z,100414.50
2023-09-18T13:15:30.897Z,100407.31
2023-09-18T13:17:59.807Z,100406.88
2023-09-18T13:20:29.778Z,100402.31
2023-09-18T13:22:58.315Z,100395.81
2023-09-18T13:25:35.931Z,100394.34
2023-09-18T13:28:04.756Z,100384.03
2023-09-18T13:30:32.605Z,100380.19
2023-09-18T13:33:05.377Z,100377.56
2023-09-18T13:35:32.019Z,100386.25
2023-09-18T13:37:58.630Z,100377.84
2023-09-18T13:40:25.310Z,100375.63
2023-09-18T13:42:51.854Z,100363.81
2023-09-18T13:45:19.032Z,100359.25
2023-09-18T13:47:45.742Z,100350.56
2023-09-18T13:50:14.352Z,100346.75
2023-09-18T13:52:40.781Z,100346.75
2023-09-18T13:55:07.477Z,100353.22
2023-09-18T13:57:34.153Z,100363.41
2023-09-18T14:00:01.634Z,100358.09
2023-09-18T14:02:28.944Z,100358.09
2023-09-18T14:04:55.810Z,100356.19
2023-09-18T14:07:23.112Z,100353.09
2023-09-18T14:09:49.837Z,100352.38
2023-09-18T14:12:16.674Z,100344.41
2023-09-18T14:14:45.001Z,100332.63
2023-09-18T14:17:11.919Z,100324.97
2023-09-18T14:19:39.442Z,100329.97
2023-09-18T14:22:09.386Z,100327.31
2023-09-18T14:24:36.382Z,100323.06
2023-09-18T14:27:06.770Z,100329.97
2023-09-18T14:29:33.440Z,100322.31
2023-09-18T14:32:00.805Z,100323.78
2023-09-18T14:34:27.663Z,100319.66
2023-09-18T14:36:54.156Z,100325.72
2023-09-18T14:39:20.604Z,100313.19
2023-09-18T14:41:48.757Z,100319.03
2023-09-18T14:44:15.298Z,100315.78
2023-09-18T14:46:41.876Z,100315.78
2023-09-18T14:49:08.553Z,100311.94
2023-09-18T14:51:35.776Z,100312.69
2023-09-18T14:54:05.337Z,100310.75
2023-09-18T14:56:32.449Z,100311.81
2023-09-18T14:58:59.212Z,100320.94
2023-09-18T15:01:25.892Z,100320.19
2023-09-18T15:03:52.477Z,100316.38
2023-09-18T15:06:19.662Z,100360.75
2023-09-18T15:08:46.241Z,100469.13
2023-09-18T15:11:14.044Z,100451.84
2023-09-18T15:13:40.869Z,100449.63
2023-09-18T15:16:07.783Z,100458.47
2023-09-18T15:18:34.571Z,100448.59
2023-09-18T15:21:01.735Z,100448.59
2023-09-18T15:23:28.846Z,100448.59
2023-09-18T15:25:56.654Z,100439.88
2023-09-18T15:28:24.363Z,100444.44
2023-09-18T15:30:54.332Z,100441.06
2023-09-18T15:33:23.654Z,100443.38
2023-09-18T15:35:51.318Z,100444.88
2023-09-18T15:38:17.932Z,100439.47
2023-09-18T15:40:44.412Z,100431.66
2023-09-18T15:43:11.333Z,100430.81
2023-09-18T15:45:38.029Z,100402.53
2023-09-18T15:48:05.772Z,100386.38
2023-09-18T15:50:38.071Z,100388.41
2023-09-18T15:53:05.044Z,100365.00
2023-09-18T15:55:31.499Z,100362.84
2023-09-18T15:57:57.992Z,100364.91
2023-09-18T16:00:24.479Z,100361.09
2023-09-18T16:02:52.906Z,100345.63
2023-09-18T16:05:26.862Z,100345.78
2023-09-18T16:08:03.530Z,100336.38
2023-09-18T16:10:33.252Z,100321.31
2023-09-18T16:12:59.896Z,100319.72
2023-09-18T16:15:28.832Z,100324.28
2023-09-18T16:17:56.303Z,100333.28
2023-09-18T16:20:22.998Z,100331.38
2023-09-18T16:22:49.485Z,100326.63
2023-09-18T16:25:16.098Z,100322.94
2023-09-18T16:27:43.946Z,100319.53
2023-09-18T16:30:11.349Z,100314.69
2023-09-18T16:32:39.495Z,100320.00
2023-09-18T16:35:06.744Z,100324.25
2023-09-18T16:37:34.011Z,100330.47
2023-09-18T16:40:00.775Z,100331.63
2023-09-18T16:42:27.677Z,100329.84
2023-09-18T16:44:54.537Z,100326.44
2023-09-18T16:47:22.410Z,100324.41
2023-09-18T16:49:49.220Z,100331.31
2023-09-18T16:52:15.804Z,100336.00
2023-09-18T16:54:42.756Z,100334.97
2023-09-18T16:57:09.225Z,100336.88
2023-09-18T16:59:35.799Z,100342.19
2023-09-18T17:02:02.385Z,100347.22
2023-09-18T17:04:28.974Z,100337.78
2023-09-18T17:06:55.566Z,100339.25
2023-09-18T17:09:22.002Z,100346.91
2023-09-18T17:11:48.532Z,100353.06
2023-09-18T17:14:15.581Z,100346.75
2023-09-18T17:16:42.057Z,100339.94
2023-09-18T17:19:09.349Z,100343.78
2023-09-18T17:21:35.822Z,100345.72
2023-09-18T17:24:02.344Z,100339.78
2023-09-18T17:26:28.990Z,100341.25
2023-09-18T17:28:56.665Z,100348.06
2023-09-18T17:31:23.448Z,100343.91
2023-09-18T17:33:51.597Z,100348.16
2023-09-18T17:36:18.219Z,100347.88
2023-09-18T17:38:47.370Z,100351.25
2023-09-18T17:41:14.075Z,100357.03
2023-09-18T17:43:40.747Z,100362.75
2023-09-18T17:46:07.334Z,100362.47
2023-09-18T17:48:33.944Z,100361.84
2023-09-18T17:51:00.508Z,100363.75
2023-09-18T17:53:27.195Z,100357.69
2023-09-18T17:55:53.671Z,100361.53
2023-09-18T17:58:20.225Z,100360.81
2023-09-18T18:00:49.122Z,100363.88
2023-09-18T18:03:16.862Z,100376.88
2023-09-18T18:05:47.000Z,100374.66
2023-09-18T18:08:14.424Z,100385.25
2023-09-18T18:10:44.925Z,100380.69
2023-09-18T18:13:12.326Z,100366.97
2023-09-18T18:15:39.603Z,100375.25
2023-09-18T18:18:11.598Z,100375.38
2023-09-18T18:20:38.494Z,100384.19
2023-09-18T18:23:05.772Z,100383.88
2023-09-18T18:25:33.962Z,100387.72
2023-09-18T18:28:00.679Z,100387.72
2023-09-18T18:30:27.200Z,100367.97
2023-09-18T18:32:54.992Z,100389.19
2023-09-18T18:35:23.535Z,100393.00
2023-09-18T18:37:50.408Z,100391.56
2023-09-18T18:40:18.910Z,100386.00
2023-09-18T18:42:48.421Z,100390.69
2023-09-18T18:45:15.813Z,100376.13
2023-09-18T18:47:43.531Z,100381.97
2023-09-18T18:50:11.272Z,100386.69
2023-09-18T18:52:38.458Z,100388.59
2023-09-18T18:55:06.021Z,100395.38
2023-09-18T18:57:32.466Z,100404.50
2023-09-18T18:59:58.952Z,100399.66
2023-09-18T19:02:25.589Z,100397.16
2023-09-18T19:04:52.092Z,100409.81
2023-09-18T19:07:20.495Z,100405.69
2023-09-18T19:09:46.948Z,100418.22
2023-09-18T19:12:13.421Z,100420.44
2023-09-18T19:14:40.798Z,100420.16
2023-09-18T19:17:07.544Z,100431.19
2023-09-18T19:19:34.054Z,100430.75
2023-09-18T19:22:00.521Z,100433.41
2023-09-18T19:24:26.992Z,100441.06
2023-09-18T19:26:53.447Z,100436.50
2023-09-18T19:29:21.225Z,100424.06
2023-09-18T19:31:49.187Z,100439.56
2023-09-18T19:34:16.517Z,100444.13
2023-09-18T19:36:52.528Z,100452.50
2023-09-18T19:39:25.857Z,100453.56
2023-09-18T19:41:52.381Z,100458.88
2023-09-18T19:44:18.996Z,100464.28
2023-09-18T19:46:45.538Z,100475.22
2023-09-18T19:49:12.049Z,100462.38
2023-09-18T19:51:39.177Z,100469.59
2023-09-18T19:54:07.055Z,100474.47
2023-09-18T19:56:34.174Z,100483.59
2023-09-18T19:59:01.509Z,100485.84
2023-09-18T20:01:30.207Z,100487.44
2023-09-18T20:03:57.027Z,100488.16
2023-09-18T20:06:23.783Z,100489.66
2023-09-18T20:08:50.862Z,100492.03
2023-09-18T20:11:18.926Z,100507.50
2023-09-18T20:13:45.452Z,100503.34
2023-09-18T20:16:12.322Z,100497.31
2023-09-18T20:18:39.556Z,100509.09
2023-09-18T20:21:09.817Z,100521.63
2023-09-18T20:23:36.485Z,100507.94
2023-09-18T20:26:02.998Z,100517.06
2023-09-18T20:28:30.188Z,100520.34
2023-09-18T20:30:56.940Z,100519.25
2023-09-18T20:33:23.644Z,100528.41
2023-09-18T20:35:50.215Z,100529.59
2023-09-18T20:38:16.763Z,100530.75
2023-09-18T20:40:44.835Z,100528.41
2023-09-18T20:43:11.466Z,100526.19
2023-09-18T20:45:39.488Z,100528.84
2023-09-18T20:48:07.805Z,100525.91
2023-09-18T20:50:34.622Z,100527.81
2023-09-18T20:53:01.291Z,100525.16
2023-09-18T20:55:29.771Z,100525.56
2023-09-18T20:57:56.582Z,100541.50
2023-09-18T21:00:24.060Z,100545.63
2023-09-18T21:02:51.609Z,100550.63
2023-09-18T21:05:18.524Z,100545.72
2023-09-18T21:07:45.537Z,100546.78
2023-09-18T21:10:12.144Z,100558.56
2023-09-18T21:12:39.463Z,100549.88
2023-09-18T21:15:08.579Z,100560.91
2023-09-18T21:17:35.289Z,100557.50
2023-09-18T21:20:01.921Z,100573.41
2023-09-18T21:22:28.403Z,100568.13
2023-09-18T21:24:54.932Z,100568.84
2023-09-18T21:27:22.299Z,100567.38
2023-09-18T21:29:49.983Z,100578.44
2023-09-18T21:32:16.586Z,100584.47
2023-09-18T21:34:43.101Z,100581.81
2023-09-18T21:37:09.675Z,100579.19
2023-09-18T21:39:37.506Z,100577.69
2023-09-18T21:42:04.625Z,100583.75
2023-09-18T21:44:31.209Z,100587.13
2023-09-18T21:46:57.752Z,100592.44
2023-09-18T21:49:24.246Z,100594.34
2023-09-18T21:51:50.737Z,100595.09
2023-09-18T21:54:17.292Z,100594.34
2023-09-18T21:56:43.867Z,100604.22
2023-09-18T21:59:12.646Z,100608.78
2023-09-18T22:01:39.270Z,100598.16
2023-09-18T22:04:07.340Z,100608.03
2023-09-18T22:06:34.132Z,100598.91
2023-09-18T22:09:01.236Z,100650.06
2023-09-18T22:11:27.933Z,100681.16
2023-09-18T22:13:54.462Z,100679.66
2023-09-18T22:16:21.124Z,100679.66
2023-09-18T22:18:49.505Z,100678.16
2023-09-18T22:21:16.547Z,100683.47
2023-09-18T22:23:43.250Z,100696.03
2023-09-18T22:26:09.744Z,100694.09
2023-09-18T22:28:37.924Z,100682.44
2023-09-18T22:31:04.703Z,100680.91
2023-09-18T22:33:32.437Z,100679.78
2023-09-18T22:36:01.477Z,100682.81
2023-09-18T22:39:00.629Z,100688.88
2023-09-18T22:41:28.849Z,100694.94
2023-09-18T22:44:32.978Z,100697.59
2023-09-18T22:47:37.336Z,100697.94
2023-09-18T22:50:42.493Z,100716.16
2023-09-18T22:53:09.185Z,100713.50
2023-09-18T22:55:40.040Z,100703.66
2023-09-18T22:58:06.756Z,100716.91
2023-09-18T23:00:35.195Z,100716.16
2023-09-18T23:03:05.607Z,100721.47
2023-09-18T23:05:33.706Z,100721.81
2023-09-18T23:08:03.997Z,100732.09
2023-09-18T23:10:30.575Z,100730.56
2023-09-18T23:12:59.957Z,100736.63
2023-09-18T23:15:29.273Z,100740.47
2023-09-18T23:17:57.039Z,100750.31
2023-09-18T23:20:27.032Z,100739.38
2023-09-18T23:22:58.458Z,100740.88
2023-09-18T23:25:26.245Z,100742.38
2023-09-18T23:27:53.499Z,100748.84
2023-09-18T23:30:21.357Z,100751.91
2023-09-18T23:33:04.407Z,100752.66
2023-09-18T23:35:35.116Z,100760.28
2023-09-18T23:38:04.863Z,100762.94
2023-09-18T23:40:33.557Z,100763.25
2023-09-18T23:43:04.876Z,100753.41
2023-09-18T23:45:33.821Z,100756.50
2023-09-18T23:48:11.421Z,100760.28
2023-09-18T23:50:38.240Z,100775.47
2023-09-18T23:53:05.220Z,100770.91
2023-09-18T23:55:33.193Z,100775.47
2023-09-18T23:57:59.767Z,100775.88
